sensor_id;sensor_type;location;lat;lon;timestamp;pressure;altitude;pressure_sealevel;temperature;humidity
41531;BME280;58990;46.284;13.126;2022-09-13T00:00:40;99228.63;;;17.75;67.00
41531;BME280;58990;46.284;13.126;2022-09-13T00:03:06;99228.03;;;17.85;66.62
41531;BME280;58990;46.284;13.126;2022-09-13T00:05:32;99218.69;;;17.82;66.47
41531;BME280;58990;46.284;13.126;2022-09-13T00:07:57;99222.41;;;17.81;66.49
41531;BME280;58990;46.284;13.126;2022-09-13T00:10:23;99220.91;;;17.86;65.90
41531;BME280;58990;46.284;13.126;2022-09-13T00:12:48;99222.66;;;17.92;65.91
41531;BME280;58990;46.284;13.126;2022-09-13T00:15:14;99218.97;;;17.93;65.78
41531;BME280;58990;46.284;13.126;2022-09-13T00:17:39;99216.53;;;17.91;65.67
41531;BME280;58990;46.284;13.126;2022-09-13T00:20:04;99223.09;;;17.89;65.71
41531;BME280;58990;46.284;13.126;2022-09-13T00:22:30;99224.28;;;17.93;65.70
41531;BME280;58990;46.284;13.126;2022-09-13T00:24:56;99230.22;;;17.88;65.92
41531;BME280;58990;46.284;13.126;2022-09-13T00:27:21;99225.63;;;17.83;66.32
41531;BME280;58990;46.284;13.126;2022-09-13T00:29:46;99226.53;;;17.77;66.44
41531;BME280;58990;46.284;13.126;2022-09-13T00:32:12;99230.47;;;17.87;66.09
41531;BME280;58990;46.284;13.126;2022-09-13T00:34:37;99238.59;;;17.92;65.48
41531;BME280;58990;46.284;13.126;2022-09-13T00:37:02;99233.81;;;17.82;65.85
41531;BME280;58990;46.284;13.126;2022-09-13T00:39:28;99230.94;;;17.83;65.68
41531;BME280;58990;46.284;13.126;2022-09-13T00:41:53;99227.47;;;17.83;65.94
41531;BME280;58990;46.284;13.126;2022-09-13T00:47:04;99230.47;;;17.87;65.39
41531;BME280;58990;46.284;13.126;2022-09-13T00:49:34;99226.31;;;17.91;65.75
41531;BME280;58990;46.284;13.126;2022-09-13T00:52:02;99222.97;;;17.83;65.91
41531;BME280;58990;46.284;13.126;2022-09-13T00:54:28;99219.84;;;17.87;65.72
41531;BME280;58990;46.284;13.126;2022-09-13T00:56:56;99224.72;;;17.90;65.19
41531;BME280;58990;46.284;13.126;2022-09-13T00:59:27;99217.78;;;17.89;65.42
41531;BME280;58990;46.284;13.126;2022-09-13T01:01:55;99209.59;;;17.90;65.53
41531;BME280;58990;46.284;13.126;2022-09-13T01:04:21;99211.66;;;17.88;65.13
41531;BME280;58990;46.284;13.126;2022-09-13T01:06:48;99203.47;;;17.90;65.24
41531;BME280;58990;46.284;13.126;2022-09-13T01:09:15;99192.28;;;17.88;64.98
41531;BME280;58990;46.284;13.126;2022-09-13T01:11:58;99200.22;;;17.88;65.39
41531;BME280;58990;46.284;13.126;2022-09-13T01:14:28;99194.47;;;17.91;64.86
41531;BME280;58990;46.284;13.126;2022-09-13T01:16:54;99205.06;;;17.91;64.95
41531;BME280;58990;46.284;13.126;2022-09-13T01:19:19;99191.72;;;17.86;65.08
41531;BME280;58990;46.284;13.126;2022-09-13T01:22:00;99188.94;;;17.80;65.58
41531;BME280;58990;46.284;13.126;2022-09-13T01:24:33;99199.53;;;17.80;65.27
41531;BME280;58990;46.284;13.126;2022-09-13T01:32:32;99194.91;;;17.76;65.62
41531;BME280;58990;46.284;13.126;2022-09-13T01:35:07;99189.16;;;17.79;65.45
41531;BME280;58990;46.284;13.126;2022-09-13T01:40:27;99186.50;;;17.79;65.92
41531;BME280;58990;46.284;13.126;2022-09-13T01:51:10;99190.41;;;17.88;64.98
41531;BME280;58990;46.284;13.126;2022-09-13T01:56:22;99188.47;;;17.83;65.25
41531;BME280;58990;46.284;13.126;2022-09-13T01:58:54;99186.16;;;17.75;65.10
41531;BME280;58990;46.284;13.126;2022-09-13T02:01:22;99187.53;;;17.66;65.50
41531;BME280;58990;46.284;13.126;2022-09-13T02:04:07;99185.91;;;17.65;65.55
41531;BME280;58990;46.284;13.126;2022-09-13T02:06:34;99187.41;;;17.73;65.51
41531;BME280;58990;46.284;13.126;2022-09-13T02:09:02;99189.84;;;17.74;65.18
41531;BME280;58990;46.284;13.126;2022-09-13T02:11:29;99177.59;;;17.73;65.82
41531;BME280;58990;46.284;13.126;2022-09-13T02:13:57;99180.59;;;17.77;65.52
41531;BME280;58990;46.284;13.126;2022-09-13T02:16:27;99177.16;;;17.76;65.26
41531;BME280;58990;46.284;13.126;2022-09-13T02:18:56;99178.75;;;17.77;64.98
41531;BME280;58990;46.284;13.126;2022-09-13T02:21:27;99179.09;;;17.81;65.12
41531;BME280;58990;46.284;13.126;2022-09-13T02:23:53;99186.25;;;17.69;65.63
41531;BME280;58990;46.284;13.126;2022-09-13T02:26:22;99185.31;;;17.63;65.81
41531;BME280;58990;46.284;13.126;2022-09-13T02:28:51;99191.91;;;17.60;65.83
41531;BME280;58990;46.284;13.126;2022-09-13T02:31:25;99190.03;;;17.61;66.02
41531;BME280;58990;46.284;13.126;2022-09-13T02:33:54;99190.38;;;17.53;66.19
41531;BME280;58990;46.284;13.126;2022-09-13T02:36:21;99189.34;;;17.54;66.13
41531;BME280;58990;46.284;13.126;2022-09-13T02:38:49;99177.94;;;17.53;66.10
41531;BME280;58990;46.284;13.126;2022-09-13T02:41:18;99175.59;;;17.45;66.13
41531;BME280;58990;46.284;13.126;2022-09-13T02:43:47;99176.16;;;17.35;66.50
41531;BME280;58990;46.284;13.126;2022-09-13T02:48:59;99163.03;;;17.40;66.63
41531;BME280;58990;46.284;13.126;2022-09-13T02:51:31;99165.31;;;17.25;67.28
41531;BME280;58990;46.284;13.126;2022-09-13T02:59:17;99165.69;;;17.10;67.73
41531;BME280;58990;46.284;13.126;2022-09-13T03:01:45;99173.56;;;17.17;67.45
41531;BME280;58990;46.284;13.126;2022-09-13T03:04:11;99172.53;;;17.18;67.25
41531;BME280;58990;46.284;13.126;2022-09-13T03:06:39;99173.56;;;17.17;67.25
41531;BME280;58990;46.284;13.126;2022-09-13T03:09:04;99169.88;;;17.18;67.46
41531;BME280;58990;46.284;13.126;2022-09-13T03:26:11;99151.72;;;17.33;66.54
41531;BME280;58990;46.284;13.126;2022-09-13T03:39:38;99153.03;;;17.12;67.29
41531;BME280;58990;46.284;13.126;2022-09-13T03:42:06;99152.34;;;17.17;67.22
41531;BME280;58990;46.284;13.126;2022-09-13T03:44:35;99144.84;;;17.13;67.26
41531;BME280;58990;46.284;13.126;2022-09-13T03:47:03;99153.41;;;17.15;67.46
41531;BME280;58990;46.284;13.126;2022-09-13T03:49:29;99152.34;;;17.17;67.09
41531;BME280;58990;46.284;13.126;2022-09-13T03:51:55;99141.16;;;17.14;67.35
41531;BME280;58990;46.284;13.126;2022-09-13T03:54:28;99146.13;;;17.23;66.94
41531;BME280;58990;46.284;13.126;2022-09-13T03:57:11;99143.25;;;17.24;66.91
41531;BME280;58990;46.284;13.126;2022-09-13T03:59:37;99144.78;;;17.32;66.71
41531;BME280;58990;46.284;13.126;2022-09-13T04:02:04;99149.63;;;17.35;66.61
41531;BME280;58990;46.284;13.126;2022-09-13T04:04:30;99153.66;;;17.38;66.64
41531;BME280;58990;46.284;13.126;2022-09-13T04:06:55;99150.78;;;17.39;66.60
41531;BME280;58990;46.284;13.126;2022-09-13T04:09:21;99151.63;;;17.40;66.27
41531;BME280;58990;46.284;13.126;2022-09-13T04:11:46;99158.63;;;17.34;66.88
41531;BME280;58990;46.284;13.126;2022-09-13T04:14:12;99153.78;;;17.31;67.04
41531;BME280;58990;46.284;13.126;2022-09-13T04:16:37;99163.25;;;17.39;66.47
41531;BME280;58990;46.284;13.126;2022-09-13T04:19:02;99158.41;;;17.36;66.62
41531;BME280;58990;46.284;13.126;2022-09-13T04:21:28;99158.72;;;17.27;66.90
41531;BME280;58990;46.284;13.126;2022-09-13T04:23:53;99150.41;;;17.24;67.02
41531;BME280;58990;46.284;13.126;2022-09-13T04:26:18;99151.91;;;17.31;66.48
41531;BME280;58990;46.284;13.126;2022-09-13T04:28:43;99154.22;;;17.28;66.67
41531;BME280;58990;46.284;13.126;2022-09-13T04:31:09;99155.25;;;17.27;66.59
41531;BME280;58990;46.284;13.126;2022-09-13T04:33:34;99161.03;;;17.24;66.46
41531;BME280;58990;46.284;13.126;2022-09-13T04:36:01;99162.50;;;17.20;66.80
41531;BME280;58990;46.284;13.126;2022-09-13T04:38:26;99158.56;;;17.10;66.92
41531;BME280;58990;46.284;13.126;2022-09-13T04:40:55;99154.88;;;17.11;66.74
41531;BME280;58990;46.284;13.126;2022-09-13T04:43:20;99147.97;;;17.10;67.29
41531;BME280;58990;46.284;13.126;2022-09-13T04:45:46;99153.41;;;17.15;66.94
41531;BME280;58990;46.284;13.126;2022-09-13T04:48:11;99158.38;;;17.24;66.65
41531;BME280;58990;46.284;13.126;2022-09-13T04:50:36;99158.81;;;17.21;66.32
41531;BME280;58990;46.284;13.126;2022-09-13T04:53:01;99160.09;;;17.18;66.73
41531;BME280;58990;46.284;13.126;2022-09-13T04:55:27;99166.66;;;17.15;66.86
41531;BME280;58990;46.284;13.126;2022-09-13T04:57:52;99156.63;;;17.18;66.85
41531;BME280;58990;46.284;13.126;2022-09-13T05:00:18;99156.63;;;17.18;67.08
41531;BME280;58990;46.284;13.126;2022-09-13T05:02:43;99150.94;;;17.14;67.01
41531;BME280;58990;46.284;13.126;2022-09-13T05:05:08;99153.81;;;17.12;67.04
41531;BME280;58990;46.284;13.126;2022-09-13T05:07:34;99157.06;;;17.14;67.35
41531;BME280;58990;46.284;13.126;2022-09-13T05:09:59;99159.81;;;17.08;67.25
41531;BME280;58990;46.284;13.126;2022-09-13T05:12:24;99150.34;;;17.00;67.83
41531;BME280;58990;46.284;13.126;2022-09-13T05:14:50;99168.09;;;17.00;68.05
41531;BME280;58990;46.284;13.126;2022-09-13T05:17:15;99173.47;;;16.93;68.18
41531;BME280;58990;46.284;13.126;2022-09-13T05:19:40;99179.88;;;17.04;67.83
41531;BME280;58990;46.284;13.126;2022-09-13T05:22:06;99179.25;;;16.90;68.18
41531;BME280;58990;46.284;13.126;2022-09-13T05:24:31;99177.75;;;16.94;68.06
41531;BME280;58990;46.284;13.126;2022-09-13T05:26:57;99176.69;;;16.95;68.28
41531;BME280;58990;46.284;13.126;2022-09-13T05:29:22;99163.13;;;17.03;67.68
41531;BME280;58990;46.284;13.126;2022-09-13T05:31:48;99153.25;;;17.10;67.81
41531;BME280;58990;46.284;13.126;2022-09-13T05:34:14;99155.69;;;17.12;67.76
41531;BME280;58990;46.284;13.126;2022-09-13T05:36:41;99154.09;;;17.23;67.06
41531;BME280;58990;46.284;13.126;2022-09-13T05:39:09;99154.56;;;17.31;66.62
41531;BME280;58990;46.284;13.126;2022-09-13T05:41:36;99151.47;;;17.35;66.59
41531;BME280;58990;46.284;13.126;2022-09-13T05:44:01;99155.63;;;17.42;66.75
41531;BME280;58990;46.284;13.126;2022-09-13T05:46:26;99163.91;;;17.34;67.00
41531;BME280;58990;46.284;13.126;2022-09-13T05:48:52;99161.84;;;17.36;66.66
41531;BME280;58990;46.284;13.126;2022-09-13T05:51:21;99160.44;;;17.22;67.64
41531;BME280;58990;46.284;13.126;2022-09-13T05:53:50;99166.13;;;17.37;67.19
41531;BME280;58990;46.284;13.126;2022-09-13T05:56:17;99167.28;;;17.41;66.66
41531;BME280;58990;46.284;13.126;2022-09-13T05:58:43;99173.44;;;17.54;66.06
41531;BME280;58990;46.284;13.126;2022-09-13T06:01:09;99177.72;;;17.55;65.74
41531;BME280;58990;46.284;13.126;2022-09-13T06:03:35;99184.31;;;17.64;65.92
41531;BME280;58990;46.284;13.126;2022-09-13T06:06:01;99188.53;;;17.65;65.13
41531;BME280;58990;46.284;13.126;2022-09-13T06:08:27;99188.41;;;17.60;65.70
41531;BME280;58990;46.284;13.126;2022-09-13T06:10:57;99180.34;;;17.55;65.57
41531;BME280;58990;46.284;13.126;2022-09-13T06:13:22;99191.66;;;17.62;65.40
41531;BME280;58990;46.284;13.126;2022-09-13T06:15:48;99190.41;;;17.64;65.39
41531;BME280;58990;46.284;13.126;2022-09-13T06:18:13;99185.31;;;17.63;65.49
41531;BME280;58990;46.284;13.126;2022-09-13T06:20:39;99185.78;;;17.72;65.48
41531;BME280;58990;46.284;13.126;2022-09-13T06:23:04;99179.34;;;17.79;64.83
41531;BME280;58990;46.284;13.126;2022-09-13T06:25:29;99185.34;;;17.87;64.84
41531;BME280;58990;46.284;13.126;2022-09-13T06:27:55;99180.06;;;17.98;63.78
41531;BME280;58990;46.284;13.126;2022-09-13T06:30:20;99175.91;;;18.03;63.78
41531;BME280;58990;46.284;13.126;2022-09-13T06:32:45;99176.09;;;18.37;62.64
41531;BME280;58990;46.284;13.126;2022-09-13T06:35:11;99183.44;;;18.58;61.76
41531;BME280;58990;46.284;13.126;2022-09-13T06:37:36;99174.78;;;18.63;61.99
41531;BME280;58990;46.284;13.126;2022-09-13T06:40:01;99169.31;;;18.81;61.30
41531;BME280;58990;46.284;13.126;2022-09-13T06:42:29;99173.44;;;18.89;60.81
41531;BME280;58990;46.284;13.126;2022-09-13T06:44:54;99158.50;;;19.00;60.33
41531;BME280;58990;46.284;13.126;2022-09-13T06:47:20;99171.47;;;19.93;58.78
41531;BME280;58990;46.284;13.126;2022-09-13T06:49:45;99174.69;;;20.57;56.14
41531;BME280;58990;46.284;13.126;2022-09-13T06:52:10;99174.09;;;20.94;55.19
41531;BME280;58990;46.284;13.126;2022-09-13T06:54:35;99171.19;;;21.28;54.01
41531;BME280;58990;46.284;13.126;2022-09-13T06:57:01;99172.06;;;21.06;54.47
41531;BME280;58990;46.284;13.126;2022-09-13T06:59:27;99176.53;;;20.73;54.91
41531;BME280;58990;46.284;13.126;2022-09-13T07:01:52;99176.25;;;20.30;56.01
41531;BME280;58990;46.284;13.126;2022-09-13T07:04:18;99174.13;;;20.32;56.81
41531;BME280;58990;46.284;13.126;2022-09-13T07:06:44;99172.56;;;20.14;57.89
41531;BME280;58990;46.284;13.126;2022-09-13T07:09:11;99169.06;;;20.31;57.27
41531;BME280;58990;46.284;13.126;2022-09-13T07:11:39;99173.34;;;20.32;56.87
41531;BME280;58990;46.284;13.126;2022-09-13T07:14:05;99174.66;;;20.74;56.53
41531;BME280;58990;46.284;13.126;2022-09-13T07:16:35;99169.13;;;21.62;54.37
41531;BME280;58990;46.284;13.126;2022-09-13T07:19:01;99171.88;;;22.15;51.66
41531;BME280;58990;46.284;13.126;2022-09-13T07:21:28;99169.94;;;22.59;50.83
41531;BME280;58990;46.284;13.126;2022-09-13T07:23:54;99165.25;;;23.07;49.85
41531;BME280;58990;46.284;13.126;2022-09-13T07:26:20;99165.31;;;23.69;48.20
41531;BME280;58990;46.284;13.126;2022-09-13T07:28:46;99167.66;;;24.12;46.43
41531;BME280;58990;46.284;13.126;2022-09-13T07:31:12;99180.44;;;24.41;45.13
41531;BME280;58990;46.284;13.126;2022-09-13T07:33:39;99177.94;;;24.60;45.10
41531;BME280;58990;46.284;13.126;2022-09-13T07:36:05;99174.06;;;24.92;43.74
41531;BME280;58990;46.284;13.126;2022-09-13T07:38:34;99175.63;;;24.98;43.57
41531;BME280;58990;46.284;13.126;2022-09-13T07:41:00;99183.97;;;24.91;45.06
41531;BME280;58990;46.284;13.126;2022-09-13T07:43:26;99174.53;;;24.99;44.10
41531;BME280;58990;46.284;13.126;2022-09-13T07:45:58;99188.38;;;25.16;44.10
41531;BME280;58990;46.284;13.126;2022-09-13T07:48:25;99187.03;;;25.19;42.97
41531;BME280;58990;46.284;13.126;2022-09-13T07:51:02;99186.16;;;25.34;44.62
41531;BME280;58990;46.284;13.126;2022-09-13T07:53:28;99189.38;;;25.36;44.60
41531;BME280;58990;46.284;13.126;2022-09-13T07:55:58;99183.31;;;25.49;43.27
41531;BME280;58990;46.284;13.126;2022-09-13T07:58:24;99182.94;;;25.66;43.69
41531;BME280;58990;46.284;13.126;2022-09-13T08:00:49;99170.94;;;25.83;42.47
41531;BME280;58990;46.284;13.126;2022-09-13T08:03:14;99169.34;;;26.11;42.94
41531;BME280;58990;46.284;13.126;2022-09-13T08:05:40;99165.94;;;26.49;42.47
41531;BME280;58990;46.284;13.126;2022-09-13T08:08:06;99169.69;;;26.72;40.04
41531;BME280;58990;46.284;13.126;2022-09-13T08:10:31;99165.41;;;27.09;40.33
41531;BME280;58990;46.284;13.126;2022-09-13T08:12:57;99157.34;;;27.09;39.54
41531;BME280;58990;46.284;13.126;2022-09-13T08:15:22;99164.13;;;26.88;40.09
41531;BME280;58990;46.284;13.126;2022-09-13T08:17:47;99167.00;;;27.29;39.66
41531;BME280;58990;46.284;13.126;2022-09-13T08:20:13;99167.19;;;27.33;39.80
41531;BME280;58990;46.284;13.126;2022-09-13T08:22:38;99172.69;;;27.28;40.69
41531;BME280;58990;46.284;13.126;2022-09-13T08:25:03;99174.13;;;27.20;39.05
41531;BME280;58990;46.284;13.126;2022-09-13T08:27:29;99170.31;;;27.59;40.55
41531;BME280;58990;46.284;13.126;2022-09-13T08:29:54;99159.38;;;27.83;38.80
41531;BME280;58990;46.284;13.126;2022-09-13T08:32:19;99163.97;;;27.97;38.69
41531;BME280;58990;46.284;13.126;2022-09-13T08:34:45;99170.28;;;28.20;38.04
41531;BME280;58990;46.284;13.126;2022-09-13T08:37:10;99172.59;;;28.13;38.04
41531;BME280;58990;46.284;13.126;2022-09-13T08:39:36;99168.19;;;28.03;38.21
41531;BME280;58990;46.284;13.126;2022-09-13T08:42:04;99167.53;;;27.92;38.57
41531;BME280;58990;46.284;13.126;2022-09-13T08:44:40;99163.22;;;27.77;39.28
41531;BME280;58990;46.284;13.126;2022-09-13T08:49:58;99151.81;;;28.13;37.90
41531;BME280;58990;46.284;13.126;2022-09-13T08:52:29;99164.03;;;28.61;37.02
41531;BME280;58990;46.284;13.126;2022-09-13T08:54:57;99157.56;;;27.93;38.23
41531;BME280;58990;46.284;13.126;2022-09-13T08:57:30;99162.47;;;28.05;38.52
41531;BME280;58990;46.284;13.126;2022-09-13T09:08:14;99172.72;;;26.65;41.99
41531;BME280;58990;46.284;13.126;2022-09-13T09:10:45;99172.50;;;26.62;43.11
41531;BME280;58990;46.284;13.126;2022-09-13T09:13:30;99183.16;;;26.48;42.79
41531;BME280;58990;46.284;13.126;2022-09-13T09:15:57;99185.38;;;26.22;43.47
41531;BME280;58990;46.284;13.126;2022-09-13T09:21:05;99184.84;;;26.19;43.93
41531;BME280;58990;46.284;13.126;2022-09-13T09:26:18;99170.16;;;26.79;44.20
41531;BME280;58990;46.284;13.126;2022-09-13T09:28:54;99165.59;;;27.51;41.42
41531;BME280;58990;46.284;13.126;2022-09-13T09:34:20;99153.06;;;26.89;43.92
41531;BME280;58990;46.284;13.126;2022-09-13T09:36:51;99148.84;;;26.59;45.06
41531;BME280;58990;46.284;13.126;2022-09-13T09:39:20;99150.75;;;27.15;43.04
41531;BME280;58990;46.284;13.126;2022-09-13T09:41:45;99148.03;;;26.82;43.17
41531;BME280;58990;46.284;13.126;2022-09-13T09:44:18;99133.91;;;26.91;43.52
41531;BME280;58990;46.284;13.126;2022-09-13T09:46:59;99133.31;;;26.94;44.00
41531;BME280;58990;46.284;13.126;2022-09-13T09:49:35;99132.53;;;27.26;43.25
41531;BME280;58990;46.284;13.126;2022-09-13T09:52:22;99144.06;;;27.32;42.39
41531;BME280;58990;46.284;13.126;2022-09-13T09:54:52;99130.16;;;26.48;44.39
41531;BME280;58990;46.284;13.126;2022-09-13T09:57:27;99137.25;;;26.82;44.01
41531;BME280;58990;46.284;13.126;2022-09-13T10:00:10;99129.09;;;26.49;45.03
41531;BME280;58990;46.284;13.126;2022-09-13T10:02:36;99120.75;;;26.27;46.39
41531;BME280;58990;46.284;13.126;2022-09-13T10:05:07;99114.53;;;27.08;44.38
41531;BME280;58990;46.284;13.126;2022-09-13T10:07:32;99108.81;;;25.84;45.82
41531;BME280;58990;46.284;13.126;2022-09-13T10:10:05;99110.16;;;25.28;47.03
41531;BME280;58990;46.284;13.126;2022-09-13T10:12:34;99106.91;;;25.31;47.12
41531;BME280;58990;46.284;13.126;2022-09-13T10:15:04;99112.03;;;25.28;47.05
41531;BME280;58990;46.284;13.126;2022-09-13T10:17:30;99114.09;;;25.95;46.36
41531;BME280;58990;46.284;13.126;2022-09-13T10:22:34;99113.31;;;25.70;45.39
41531;BME280;58990;46.284;13.126;2022-09-13T10:25:12;99105.56;;;25.34;46.85
41531;BME280;58990;46.284;13.126;2022-09-13T10:27:39;99106.59;;;25.38;48.02
41531;BME280;58990;46.284;13.126;2022-09-13T10:30:07;99114.53;;;26.02;46.43
41531;BME280;58990;46.284;13.126;2022-09-13T10:32:53;99120.78;;;26.65;44.91
41531;BME280;58990;46.284;13.126;2022-09-13T10:35:19;99129.09;;;26.49;44.93
41531;BME280;58990;46.284;13.126;2022-09-13T10:37:44;99133.34;;;26.50;44.63
41531;BME280;58990;46.284;13.126;2022-09-13T10:40:28;99123.19;;;27.57;43.06
41531;BME280;58990;46.284;13.126;2022-09-13T10:42:58;99130.22;;;28.13;40.77
41531;BME280;58990;46.284;13.126;2022-09-13T10:45:25;99138.78;;;28.43;40.78
41531;BME280;58990;46.284;13.126;2022-09-13T10:47:52;99131.25;;;27.57;41.11
41531;BME280;58990;46.284;13.126;2022-09-13T10:50:20;99122.56;;;27.60;41.63
41531;BME280;58990;46.284;13.126;2022-09-13T10:55:32;99123.19;;;27.70;41.33
41531;BME280;58990;46.284;13.126;2022-09-13T11:24:58;99115.25;;;28.21;40.35
41531;BME280;58990;46.284;13.126;2022-09-13T11:30:20;99109.81;;;27.93;39.80
41531;BME280;58990;46.284;13.126;2022-09-13T11:43:53;99115.34;;;26.70;42.35
41531;BME280;58990;46.284;13.126;2022-09-13T11:57:28;99115.31;;;27.60;41.37
41531;BME280;58990;46.284;13.126;2022-09-13T12:00:00;99107.56;;;27.40;41.63
41531;BME280;58990;46.284;13.126;2022-09-13T12:02:28;99121.00;;;26.68;42.88
41531;BME280;58990;46.284;13.126;2022-09-13T12:05:00;99110.34;;;26.82;42.84
41531;BME280;58990;46.284;13.126;2022-09-13T12:07:41;99103.03;;;27.02;42.28
41531;BME280;58990;46.284;13.126;2022-09-13T12:10:15;99106.22;;;26.71;42.74
41531;BME280;58990;46.284;13.126;2022-09-13T12:12:42;99104.00;;;26.73;42.80
41531;BME280;58990;46.284;13.126;2022-09-13T12:17:55;99108.00;;;26.57;43.38
41531;BME280;58990;46.284;13.126;2022-09-13T12:20:37;99118.31;;;26.49;43.22
41531;BME280;58990;46.284;13.126;2022-09-13T12:23:04;99114.31;;;26.66;42.67
41531;BME280;58990;46.284;13.126;2022-09-13T12:25:36;99105.31;;;26.95;43.06
41531;BME280;58990;46.284;13.126;2022-09-13T12:28:05;99112.66;;;26.89;42.57
41531;BME280;58990;46.284;13.126;2022-09-13T12:30:38;99103.22;;;26.73;42.82
41531;BME280;58990;46.284;13.126;2022-09-13T12:33:06;99111.59;;;26.71;43.40
41531;BME280;58990;46.284;13.126;2022-09-13T12:35:33;99110.47;;;26.72;43.20
41531;BME280;58990;46.284;13.126;2022-09-13T13:03:14;99108.72;;;25.71;44.47
41531;BME280;58990;46.284;13.126;2022-09-13T13:05:45;99117.19;;;25.83;45.05
41531;BME280;58990;46.284;13.126;2022-09-13T13:11:08;99115.66;;;25.47;45.95
41531;BME280;58990;46.284;13.126;2022-09-13T13:13:36;99106.72;;;25.23;46.30
41531;BME280;58990;46.284;13.126;2022-09-13T13:18:44;99105.28;;;25.30;46.31
41531;BME280;58990;46.284;13.126;2022-09-13T13:37:25;99102.88;;;25.63;44.80
41531;BME280;58990;46.284;13.126;2022-09-13T13:42:37;99104.66;;;25.97;44.39
41531;BME280;58990;46.284;13.126;2022-09-13T13:45:15;99101.31;;;26.11;43.65
41531;BME280;58990;46.284;13.126;2022-09-13T13:47:51;99101.09;;;26.07;43.58
41531;BME280;58990;46.284;13.126;2022-09-13T13:50:17;99096.59;;;26.22;44.46
41531;BME280;58990;46.284;13.126;2022-09-13T13:55:36;99102.56;;;25.94;43.90
41531;BME280;58990;46.284;13.126;2022-09-13T13:58:03;99097.53;;;25.88;45.08
41531;BME280;58990;46.284;13.126;2022-09-13T14:00:30;99097.06;;;26.05;44.32
41531;BME280;58990;46.284;13.126;2022-09-13T14:08:43;99086.97;;;25.67;45.04
41531;BME280;58990;46.284;13.126;2022-09-13T14:16:49;99081.34;;;25.93;44.43
41531;BME280;58990;46.284;13.126;2022-09-13T14:24:49;99088.78;;;25.47;45.61
41531;BME280;58990;46.284;13.126;2022-09-13T14:30:04;99083.69;;;25.11;47.29
41531;BME280;58990;46.284;13.126;2022-09-13T14:32:44;99082.81;;;25.21;47.15
41531;BME280;58990;46.284;13.126;2022-09-13T14:40:46;99077.34;;;25.02;46.97
41531;BME280;58990;46.284;13.126;2022-09-13T14:43:13;99082.59;;;25.17;46.52
41531;BME280;58990;46.284;13.126;2022-09-13T14:45:39;99076.56;;;25.31;47.05
41531;BME280;58990;46.284;13.126;2022-09-13T14:48:09;99067.03;;;25.14;46.84
41531;BME280;58990;46.284;13.126;2022-09-13T14:50:39;99075.28;;;25.23;46.03
41531;BME280;58990;46.284;13.126;2022-09-13T14:53:09;99071.81;;;25.23;45.75
41531;BME280;58990;46.284;13.126;2022-09-13T14:55:37;99064.91;;;25.11;46.20
41531;BME280;58990;46.284;13.126;2022-09-13T14:58:05;99070.19;;;25.22;46.67
41531;BME280;58990;46.284;13.126;2022-09-13T15:00:32;99066.56;;;25.07;46.66
41531;BME280;58990;46.284;13.126;2022-09-13T15:03:03;99068.75;;;25.05;46.44
41531;BME280;58990;46.284;13.126;2022-09-13T15:05:34;99067.53;;;25.22;46.86
41531;BME280;58990;46.284;13.126;2022-09-13T15:08:15;99068.56;;;24.91;47.13
41531;BME280;58990;46.284;13.126;2022-09-13T15:10:45;99066.81;;;25.11;46.96
41531;BME280;58990;46.284;13.126;2022-09-13T15:13:11;99067.09;;;25.09;47.01
41531;BME280;58990;46.284;13.126;2022-09-13T15:15:40;99067.72;;;24.96;47.42
41531;BME280;58990;46.284;13.126;2022-09-13T15:18:22;99059.66;;;25.01;47.44
41531;BME280;58990;46.284;13.126;2022-09-13T15:20:55;99052.69;;;24.95;47.36
41531;BME280;58990;46.284;13.126;2022-09-13T15:23:27;99047.69;;;24.83;47.09
41531;BME280;58990;46.284;13.126;2022-09-13T15:25:54;99051.53;;;25.06;47.31
41531;BME280;58990;46.284;13.126;2022-09-13T15:28:25;99048.34;;;25.04;46.82
41531;BME280;58990;46.284;13.126;2022-09-13T15:30:50;99049.34;;;25.13;46.53
41531;BME280;58990;46.284;13.126;2022-09-13T15:33:18;99045.63;;;25.09;47.35
41531;BME280;58990;46.284;13.126;2022-09-13T15:35:46;99044.03;;;25.03;46.71
41531;BME280;58990;46.284;13.126;2022-09-13T15:43:43;99048.22;;;25.14;47.49
41531;BME280;58990;46.284;13.126;2022-09-13T15:46:13;99043.44;;;25.11;46.96
41531;BME280;58990;46.284;13.126;2022-09-13T15:48:39;99040.88;;;24.96;46.97
41531;BME280;58990;46.284;13.126;2022-09-13T15:51:11;99046.47;;;24.99;46.60
41531;BME280;58990;46.284;13.126;2022-09-13T15:53:41;99048.00;;;25.11;47.17
41531;BME280;58990;46.284;13.126;2022-09-13T15:56:07;99035.81;;;24.94;47.40
41531;BME280;58990;46.284;13.126;2022-09-13T15:58:34;99038.81;;;24.88;47.80
41531;BME280;58990;46.284;13.126;2022-09-13T16:00:59;99031.13;;;24.76;48.45
41531;BME280;58990;46.284;13.126;2022-09-13T16:03:25;99033.03;;;24.70;48.50
41531;BME280;58990;46.284;13.126;2022-09-13T16:05:50;99037.00;;;24.78;48.89
41531;BME280;58990;46.284;13.126;2022-09-13T16:08:16;99043.25;;;24.68;49.39
41531;BME280;58990;46.284;13.126;2022-09-13T16:10:41;99037.91;;;24.63;49.71
41531;BME280;58990;46.284;13.126;2022-09-13T16:13:06;99032.03;;;24.56;50.28
41531;BME280;58990;46.284;13.126;2022-09-13T16:15:31;99028.06;;;24.43;51.17
41531;BME280;58990;46.284;13.126;2022-09-13T16:17:57;99027.25;;;24.47;51.15
41531;BME280;58990;46.284;13.126;2022-09-13T16:20:22;99037.44;;;24.45;51.62
41531;BME280;58990;46.284;13.126;2022-09-13T16:22:47;99033.50;;;24.38;52.02
41531;BME280;58990;46.284;13.126;2022-09-13T16:25:13;99029.44;;;24.40;52.20
41531;BME280;58990;46.284;13.126;2022-09-13T16:27:42;99034.22;;;24.48;52.81
41531;BME280;58990;46.284;13.126;2022-09-13T16:30:10;99035.91;;;24.34;53.25
41531;BME280;58990;46.284;13.126;2022-09-13T16:32:36;99034.28;;;24.38;53.17